YUKO2: Yukon 2NNE(N Canadian R)

Data processed at Thu Jan 04 2018 23:42


All information presented herein is the property of the government of the United States of America and may be revised or deleted at any time without prior notice.
Dissemination of this information without the expressed written consent of the Public Affairs Office, Tulsa District U.S. Army Corps of Engineers is strictly prohibited.
These data are gathered electronically and, as presented, have not undergone any form of quality control. These data are not guaranteed to be valid or correct.
Go to home page.
Go to station list.

Upstream stations:

Downstream station:
Previous Day
Next Day
Current Day
    
SHEF ID:       YUKO2     North Canadian River near Yukon,
STATION TYPE:  

                STAGE  STAGE(2)  RIV-FLOW  WTR-TEMP   CONDUCT  BAT-LOAD
                   ft        ft       cfs         F   umho/cm      volt
              Ccp-Rev   Ccp-Rev   Ccp-Rev   Ccp-Rev   Ccp-Rev   Ccp-Rev
(US/Central)
01/02 00:00      1.52      1.63        52     32.61      1587     12.83
01/02 01:00      1.51      1.63        51     32.56      1586     12.83
01/02 02:00      1.51      1.63        51     32.67      1562     12.77
01/02 03:00      1.51      1.63        51     32.68      1563     12.77
01/02 04:00      1.47      1.63        47     32.49      1586     12.71
01/02 05:00      1.46      1.63        46     32.40      1594     12.71
01/02 06:00      1.52      1.63        52     32.18      1612     12.71
01/02 07:00      1.50      1.63        50     32.22      1608     12.71
01/02 08:00      1.50      1.63        50     32.27      1601     12.71
01/02 09:00      1.49      1.63        49     32.32      1548     12.71
01/02 10:00      1.49      1.64        49     32.81      1543     12.89
01/02 11:00      1.50      1.64        50     33.31      1601     12.36
01/02 12:00      1.53      1.63        52     33.62      1618     13.65
01/02 13:00      1.56      1.63        55     33.89      1608     14.18
01/02 14:00      1.59      1.64        58     33.82      1597     14.12
01/02 15:00      1.60      1.63        59     33.66      1603     14.18
01/02 16:00      1.59      1.63        58     33.53      1595     13.94
01/02 17:00      1.60      1.63        59     33.22      1595     13.65
01/02 18:00      1.61      1.63        60     32.94      1602     13.18
01/02 19:00      1.63      1.63        61     32.86      1603     13.00
01/02 20:00      1.63      1.63        61     32.47      1614     12.89
01/02 21:00      1.64      1.63        62     32.27      1620     12.89
01/02 22:00      1.62      1.63        60     32.40      1611     12.83
01/02 23:00      1.60      1.63        59     32.34      1623     12.77